createdAt,value
2023-02-23T00:00:43.540Z,7.80
2023-02-23T00:04:06.750Z,7.80
2023-02-23T00:07:28.328Z,7.80
2023-02-23T00:10:49.951Z,7.80
2023-02-23T00:14:11.535Z,7.80
2023-02-23T00:17:33.326Z,7.80
2023-02-23T00:20:56.673Z,7.90
2023-02-23T00:24:18.260Z,7.90
2023-02-23T00:27:39.848Z,7.90
2023-02-23T00:31:01.904Z,7.90
2023-02-23T00:34:23.620Z,7.90
2023-02-23T00:37:48.001Z,7.90
2023-02-23T00:41:11.332Z,7.80
2023-02-23T00:44:34.411Z,7.80
2023-02-23T00:47:56.018Z,7.80
2023-02-23T00:51:18.475Z,7.70
2023-02-23T00:54:41.824Z,7.70
2023-02-23T00:58:03.402Z,7.70
2023-02-23T01:01:25.191Z,7.70
2023-02-23T01:04:46.848Z,7.80
2023-02-23T01:08:08.441Z,7.80
2023-02-23T01:11:31.376Z,7.80
2023-02-23T01:14:53.113Z,7.80
2023-02-23T01:18:15.047Z,7.70
2023-02-23T01:21:38.168Z,7.60
2023-02-23T01:24:59.789Z,7.50
2023-02-23T01:28:22.747Z,7.40
2023-02-23T01:31:45.231Z,7.20
2023-02-23T01:35:08.998Z,7.10
2023-02-23T01:38:30.557Z,7.00
2023-02-23T01:41:52.269Z,7.00
2023-02-23T01:45:21.186Z,6.90
2023-02-23T01:48:42.767Z,6.80
2023-02-23T01:52:05.328Z,6.80
2023-02-23T01:55:27.251Z,6.80
2023-02-23T01:58:50.115Z,6.90
2023-02-23T02:02:13.615Z,6.90
2023-02-23T02:05:36.633Z,6.90
2023-02-23T02:09:00.155Z,6.90
2023-02-23T02:12:21.732Z,6.90
2023-02-23T02:15:47.940Z,6.90
2023-02-23T02:19:26.507Z,6.90
2023-02-23T02:23:05.789Z,6.80
2023-02-23T02:26:31.528Z,6.80
2023-02-23T02:30:05.234Z,6.70
2023-02-23T02:33:47.865Z,6.70
2023-02-23T02:37:18.101Z,6.70
2023-02-23T02:40:42.700Z,6.70
2023-02-23T02:44:09.134Z,6.60
2023-02-23T02:47:33.903Z,6.70
2023-02-23T02:50:56.265Z,6.60
2023-02-23T02:54:23.238Z,6.70
2023-02-23T02:57:46.031Z,6.70
2023-02-23T03:01:09.168Z,6.70
2023-02-23T03:04:30.749Z,6.80
2023-02-23T03:07:59.757Z,6.80
2023-02-23T03:11:23.000Z,6.90
2023-02-23T03:14:48.369Z,6.90
2023-02-23T03:18:15.182Z,6.80
2023-02-23T03:21:42.229Z,6.80
2023-02-23T03:25:06.556Z,6.80
2023-02-23T03:28:33.547Z,6.90
2023-02-23T03:32:00.918Z,6.90
2023-02-23T03:35:25.564Z,6.90
2023-02-23T03:38:50.004Z,6.90
2023-02-23T03:42:14.757Z,7.00
2023-02-23T03:45:38.951Z,7.00
2023-02-23T03:49:02.037Z,7.00
2023-02-23T03:52:25.793Z,7.00
2023-02-23T03:55:49.178Z,7.00
2023-02-23T03:59:12.383Z,7.10
2023-02-23T04:02:36.691Z,7.10
2023-02-23T04:05:58.722Z,7.10
2023-02-23T04:09:20.355Z,7.10
2023-02-23T04:12:46.630Z,7.10
2023-02-23T04:16:08.835Z,7.20
2023-02-23T04:19:31.848Z,7.20
2023-02-23T04:22:53.440Z,7.30
2023-02-23T04:26:15.297Z,7.40
2023-02-23T04:29:36.872Z,7.50
2023-02-23T04:32:58.422Z,7.60
2023-02-23T04:36:21.359Z,7.70
2023-02-23T04:39:42.966Z,7.60
2023-02-23T04:43:04.548Z,7.50
2023-02-23T04:46:26.144Z,7.40
2023-02-23T04:49:47.759Z,7.30
2023-02-23T04:53:10.669Z,7.20
2023-02-23T04:56:32.348Z,7.20
2023-02-23T04:59:53.924Z,7.20
2023-02-23T05:03:15.496Z,7.20
2023-02-23T05:06:37.096Z,7.10
2023-02-23T05:10:00.058Z,7.20
2023-02-23T05:13:23.409Z,7.20
2023-02-23T05:16:45.010Z,7.20
2023-02-23T05:20:07.062Z,7.30
2023-02-23T05:23:28.673Z,7.40
2023-02-23T05:26:51.656Z,7.50
2023-02-23T05:30:13.554Z,7.60
2023-02-23T05:33:36.079Z,7.60
2023-02-23T05:36:57.715Z,7.70
2023-02-23T05:40:19.383Z,7.70
2023-02-23T05:43:42.424Z,7.70
2023-02-23T05:47:04.063Z,7.80
2023-02-23T05:50:25.709Z,7.80
2023-02-23T05:53:47.286Z,7.80
2023-02-23T05:57:08.910Z,7.80
2023-02-23T06:00:31.856Z,7.70
2023-02-23T06:03:53.535Z,7.60
2023-02-23T06:07:16.012Z,7.50
2023-02-23T06:10:37.823Z,7.40
2023-02-23T06:13:59.568Z,7.40
2023-02-23T06:17:22.554Z,7.30
2023-02-23T06:20:45.529Z,7.30
2023-02-23T06:24:07.139Z,7.30
2023-02-23T06:27:28.763Z,7.30
2023-02-23T06:30:51.720Z,7.20
2023-02-23T06:34:14.706Z,7.20
2023-02-23T06:37:36.512Z,7.30
2023-02-23T06:40:58.113Z,7.30
2023-02-23T06:44:19.686Z,7.30
2023-02-23T06:47:41.270Z,7.30
2023-02-23T06:51:04.366Z,7.30
2023-02-23T06:54:26.007Z,7.30
2023-02-23T06:57:48.645Z,7.30
2023-02-23T07:01:10.247Z,7.30
2023-02-23T07:04:31.935Z,7.30
2023-02-23T07:07:54.923Z,7.30
2023-02-23T07:11:16.841Z,7.30
2023-02-23T07:14:39.179Z,7.30
2023-02-23T07:18:00.776Z,7.30
2023-02-23T07:21:22.582Z,7.40
2023-02-23T07:24:45.512Z,7.40
2023-02-23T07:28:07.104Z,7.40
2023-02-23T07:31:28.699Z,7.50
2023-02-23T07:34:51.761Z,7.50
2023-02-23T07:38:15.128Z,7.60
2023-02-23T07:41:38.315Z,7.70
2023-02-23T07:44:59.943Z,7.70
2023-02-23T07:48:21.797Z,7.80
2023-02-23T07:51:43.410Z,7.80
2023-02-23T07:55:05.704Z,8.00
2023-02-23T07:58:28.648Z,8.20
2023-02-23T08:01:50.217Z,8.30
2023-02-23T08:05:11.855Z,8.30
2023-02-23T08:08:33.442Z,8.40
2023-02-23T08:11:55.041Z,8.50
2023-02-23T08:15:18.027Z,8.60
2023-02-23T08:18:39.767Z,8.60
2023-02-23T08:22:01.686Z,8.60
2023-02-23T08:25:23.369Z,8.60
2023-02-23T08:28:44.964Z,8.70
2023-02-23T08:32:07.985Z,8.80
2023-02-23T08:35:29.666Z,8.90
2023-02-23T08:38:51.255Z,9.10
2023-02-23T08:42:12.844Z,9.40
2023-02-23T08:45:34.415Z,9.60
2023-02-23T08:48:57.541Z,10.00
2023-02-23T08:52:19.114Z,10.10
2023-02-23T08:55:40.708Z,10.20
2023-02-23T08:59:02.327Z,10.30
2023-02-23T09:02:23.928Z,10.50
2023-02-23T09:05:47.023Z,10.60
2023-02-23T09:09:08.666Z,10.70
2023-02-23T09:12:30.252Z,10.70
2023-02-23T09:15:51.875Z,10.70
2023-02-23T09:19:13.759Z,10.80
2023-02-23T09:22:37.078Z,10.90
2023-02-23T09:26:02.080Z,10.90
2023-02-23T09:29:23.798Z,10.90
2023-02-23T09:32:45.689Z,11.00
2023-02-23T09:36:08.042Z,11.00
2023-02-23T09:39:38.177Z,11.00
2023-02-23T09:43:02.571Z,11.10
2023-02-23T09:46:28.851Z,11.40
2023-02-23T09:49:50.851Z,11.60
2023-02-23T09:53:17.870Z,11.80
2023-02-23T09:56:41.747Z,11.90
2023-02-23T10:00:03.938Z,12.00
2023-02-23T10:03:28.409Z,12.30
2023-02-23T10:06:52.380Z,12.40
2023-02-23T10:10:21.250Z,12.80
2023-02-23T10:13:48.697Z,13.20
2023-02-23T10:17:13.582Z,13.50
2023-02-23T10:20:41.059Z,13.70
2023-02-23T10:24:05.161Z,14.10
2023-02-23T10:27:30.100Z,14.30
2023-02-23T10:30:54.652Z,14.30
2023-02-23T10:34:17.622Z,14.10
2023-02-23T10:37:39.225Z,14.10
2023-02-23T10:41:00.821Z,14.10
2023-02-23T10:44:23.253Z,14.20
2023-02-23T10:47:46.833Z,14.10
2023-02-23T10:51:13.198Z,14.10
2023-02-23T10:54:39.343Z,14.40
2023-02-23T10:58:02.202Z,14.40
2023-02-23T11:01:34.235Z,14.50
2023-02-23T11:04:58.084Z,14.60
2023-02-23T11:08:25.154Z,14.60
2023-02-23T11:11:56.136Z,14.80
2023-02-23T11:15:35.288Z,14.80
2023-02-23T11:19:02.047Z,14.80
2023-02-23T11:22:25.009Z,14.50
2023-02-23T11:25:49.195Z,14.50
2023-02-23T11:29:16.202Z,14.60
2023-02-23T11:32:37.912Z,14.80
2023-02-23T11:36:00.384Z,14.70
2023-02-23T11:39:23.307Z,14.60
2023-02-23T11:42:50.957Z,14.50
2023-02-23T11:46:14.061Z,14.30
2023-02-23T11:49:36.750Z,14.20
2023-02-23T11:53:01.499Z,14.30
2023-02-23T11:56:25.110Z,14.50
2023-02-23T11:59:48.075Z,14.60
2023-02-23T12:03:17.345Z,14.90
2023-02-23T12:06:40.307Z,14.90
2023-02-23T12:10:05.099Z,15.00
2023-02-23T12:13:31.533Z,14.90
2023-02-23T12:16:56.222Z,14.70
2023-02-23T12:20:20.011Z,14.60
2023-02-23T12:23:43.803Z,14.50
2023-02-23T12:27:09.814Z,14.50
2023-02-23T12:30:43.463Z,14.40
2023-02-23T12:34:09.872Z,14.40
2023-02-23T12:37:36.792Z,14.40
2023-02-23T12:41:01.643Z,14.40
2023-02-23T12:44:30.009Z,14.50
2023-02-23T12:47:54.400Z,14.50
2023-02-23T12:51:19.396Z,14.50
2023-02-23T12:54:41.118Z,14.40
2023-02-23T12:58:06.272Z,14.30
2023-02-23T13:01:29.558Z,14.30
2023-02-23T13:04:58.734Z,14.10
2023-02-23T13:08:24.764Z,14.00
2023-02-23T13:11:52.877Z,13.90
2023-02-23T13:15:21.987Z,13.70
2023-02-23T13:18:45.781Z,13.60
2023-02-23T13:22:18.771Z,13.50
2023-02-23T13:25:44.844Z,13.30
2023-02-23T13:29:10.700Z,13.20
2023-02-23T13:32:33.175Z,13.10
2023-02-23T13:35:55.169Z,13.10
2023-02-23T13:39:31.687Z,13.10
2023-02-23T13:42:59.347Z,12.90
2023-02-23T13:46:25.501Z,13.00
2023-02-23T13:49:52.179Z,13.10
2023-02-23T13:53:27.878Z,13.10
2023-02-23T13:56:50.713Z,13.30
2023-02-23T14:00:17.142Z,13.30
2023-02-23T14:03:45.613Z,13.40
2023-02-23T14:07:16.369Z,13.40
2023-02-23T14:10:39.690Z,13.60
2023-02-23T14:14:02.401Z,13.60
2023-02-23T14:17:39.973Z,13.60
2023-02-23T14:21:08.116Z,13.50
2023-02-23T14:24:29.709Z,13.50
2023-02-23T14:27:56.632Z,13.40
2023-02-23T14:31:20.241Z,13.50
2023-02-23T14:34:44.045Z,13.60
2023-02-23T14:38:10.643Z,13.50
2023-02-23T14:41:35.246Z,13.50
2023-02-23T14:44:57.917Z,13.40
2023-02-23T14:48:19.551Z,13.50
2023-02-23T14:51:44.610Z,13.60
2023-02-23T14:55:23.793Z,13.70
2023-02-23T14:58:49.395Z,13.70
2023-02-23T15:02:11.949Z,13.60
2023-02-23T15:05:35.778Z,13.60
2023-02-23T15:08:57.622Z,13.50
2023-02-23T15:12:22.721Z,13.40
2023-02-23T15:15:45.563Z,13.20
2023-02-23T15:19:26.028Z,13.00
2023-02-23T15:22:51.470Z,12.90
2023-02-23T15:26:24.264Z,12.70
2023-02-23T15:29:47.525Z,12.70
2023-02-23T15:33:10.984Z,12.60
2023-02-23T15:36:34.105Z,12.60
2023-02-23T15:39:56.977Z,12.60
2023-02-23T15:43:18.611Z,12.50
2023-02-23T15:46:42.308Z,12.40
2023-02-23T15:50:06.722Z,12.30
2023-02-23T15:53:30.235Z,12.20
2023-02-23T15:56:55.425Z,12.10
2023-02-23T16:00:19.751Z,12.00
2023-02-23T16:03:46.509Z,11.90
2023-02-23T16:07:09.318Z,11.80
2023-02-23T16:10:31.694Z,11.70
2023-02-23T16:13:53.741Z,11.60
2023-02-23T16:17:21.654Z,11.50
2023-02-23T16:20:46.634Z,11.50
2023-02-23T16:24:10.457Z,11.40
2023-02-23T16:27:32.226Z,11.30
2023-02-23T16:30:57.136Z,11.30
2023-02-23T16:34:19.897Z,11.30
2023-02-23T16:37:55.743Z,11.20
2023-02-23T16:41:18.806Z,11.20
2023-02-23T16:44:43.806Z,11.20
2023-02-23T16:48:05.953Z,11.10
2023-02-23T16:51:27.993Z,11.00
2023-02-23T16:54:52.162Z,11.00
2023-02-23T16:58:16.596Z,10.90
2023-02-23T17:01:38.225Z,10.90
2023-02-23T17:04:59.833Z,10.80
2023-02-23T17:08:21.463Z,10.80
2023-02-23T17:11:44.578Z,10.80
2023-02-23T17:15:09.798Z,10.70
2023-02-23T17:18:32.209Z,10.70
2023-02-23T17:21:53.804Z,10.70
2023-02-23T17:25:15.524Z,10.60
2023-02-23T17:28:39.204Z,10.60
2023-02-23T17:32:01.215Z,10.60
2023-02-23T17:35:23.396Z,10.50
2023-02-23T17:38:45.066Z,10.50
2023-02-23T17:42:07.978Z,10.50
2023-02-23T17:45:31.080Z,10.50
2023-02-23T17:48:55.120Z,10.50
2023-02-23T17:52:17.784Z,10.50
2023-02-23T17:55:39.490Z,10.50
2023-02-23T17:59:01.598Z,10.50
2023-02-23T18:02:24.887Z,10.50
2023-02-23T18:05:46.587Z,10.50
2023-02-23T18:09:08.216Z,10.50
2023-02-23T18:12:29.930Z,10.50
2023-02-23T18:15:52.251Z,10.40
2023-02-23T18:19:15.362Z,10.40
2023-02-23T18:22:36.987Z,10.40
2023-02-23T18:26:03.866Z,10.30
2023-02-23T18:29:25.603Z,10.30
2023-02-23T18:32:47.371Z,10.30
2023-02-23T18:36:21.107Z,10.20
2023-02-23T18:39:42.714Z,10.20
2023-02-23T18:43:04.328Z,10.20
2023-02-23T18:46:26.146Z,10.20
2023-02-23T18:49:47.796Z,10.20
2023-02-23T18:53:10.750Z,10.10
2023-02-23T18:56:32.431Z,10.10
2023-02-23T18:59:54.082Z,10.10
2023-02-23T19:03:15.728Z,10.10
2023-02-23T19:06:37.340Z,10.10
2023-02-23T19:10:00.308Z,10.10
2023-02-23T19:13:21.958Z,10.00
2023-02-23T19:16:44.164Z,10.00
2023-02-23T19:20:06.286Z,10.10
2023-02-23T19:23:28.082Z,10.00
2023-02-23T19:26:51.125Z,10.00
2023-02-23T19:30:12.980Z,10.00
2023-02-23T19:33:34.759Z,10.00
2023-02-23T19:36:56.531Z,9.90
2023-02-23T19:40:19.088Z,9.90
2023-02-23T19:43:42.096Z,9.80
2023-02-23T19:47:03.867Z,9.80
2023-02-23T19:50:25.502Z,9.80
2023-02-23T19:53:47.156Z,9.80
2023-02-23T19:57:08.744Z,9.80
2023-02-23T20:00:31.787Z,9.80
2023-02-23T20:03:54.442Z,9.80
2023-02-23T20:07:16.110Z,9.80
2023-02-23T20:10:38.348Z,9.80
2023-02-23T20:14:00.301Z,9.80
2023-02-23T20:17:23.269Z,9.80
2023-02-23T20:20:44.867Z,9.70
2023-02-23T20:24:06.726Z,9.80
2023-02-23T20:27:28.308Z,9.80
2023-02-23T20:30:50.053Z,9.80
2023-02-23T20:34:13.066Z,9.80
2023-02-23T20:37:34.659Z,9.80
2023-02-23T20:40:56.252Z,9.80
2023-02-23T20:44:17.863Z,9.70
2023-02-23T20:47:39.790Z,9.70
2023-02-23T20:51:02.754Z,9.60
2023-02-23T20:54:24.369Z,9.60
2023-02-23T20:57:46.302Z,9.60
2023-02-23T21:01:12.288Z,9.50
2023-02-23T21:04:35.103Z,9.40
2023-02-23T21:08:02.233Z,9.40
2023-02-23T21:11:24.200Z,9.30
2023-02-23T21:14:46.996Z,9.40
2023-02-23T21:18:09.346Z,9.30
2023-02-23T21:21:31.622Z,9.30
2023-02-23T21:24:54.597Z,9.20
2023-02-23T21:28:16.177Z,9.20
2023-02-23T21:31:38.047Z,9.10
2023-02-23T21:34:59.818Z,9.00
2023-02-23T21:38:21.420Z,8.80
2023-02-23T21:41:44.376Z,8.70
2023-02-23T21:45:06.698Z,8.60
2023-02-23T21:48:28.280Z,8.50
2023-02-23T21:51:51.872Z,8.40
2023-02-23T21:55:21.185Z,8.40
2023-02-23T21:58:45.654Z,8.40
2023-02-23T22:02:07.549Z,8.40
2023-02-23T22:05:29.214Z,8.40
2023-02-23T22:08:50.907Z,8.40
2023-02-23T22:12:12.494Z,8.40
2023-02-23T22:15:35.406Z,8.40
2023-02-23T22:18:57.054Z,8.40
2023-02-23T22:22:18.709Z,8.40
2023-02-23T22:25:40.284Z,8.40
2023-02-23T22:29:02.011Z,8.30
2023-02-23T22:32:25.251Z,8.40
2023-02-23T22:35:47.001Z,8.40
2023-02-23T22:39:08.585Z,8.50
2023-02-23T22:42:30.170Z,8.50
2023-02-23T22:45:53.095Z,8.50
2023-02-23T22:49:16.572Z,8.50
2023-02-23T22:52:38.156Z,8.50
2023-02-23T22:55:59.737Z,8.50
2023-02-23T22:59:21.348Z,8.50
2023-02-23T23:02:42.961Z,8.50
2023-02-23T23:06:07.718Z,8.50
2023-02-23T23:09:29.311Z,8.50
2023-02-23T23:12:50.925Z,8.50
2023-02-23T23:16:28.901Z,8.50
2023-02-23T23:19:52.503Z,8.50
2023-02-23T23:23:15.640Z,8.50
2023-02-23T23:26:37.689Z,8.50
2023-02-23T23:29:59.321Z,8.60
2023-02-23T23:33:20.887Z,8.50
2023-02-23T23:36:43.355Z,8.50
2023-02-23T23:40:07.512Z,8.40
2023-02-23T23:43:29.111Z,8.40
2023-02-23T23:46:50.881Z,8.50
2023-02-23T23:50:13.161Z,8.50
2023-02-23T23:53:34.768Z,8.50
2023-02-23T23:56:58.012Z,8.50
